Terminal Aerodrome Forecast
Issued by NWS

Home | Current Version | Previous Version | Graphics & Text | Print | Product List | Glossary On
Versions: 1 2 3 4 5 6 7 8 9 10 11 12 13 14 15 16
000
FTUS43 KICT 170526
TAFSLN
TAF
KSLN 170526Z 1706/1806 11005KT P6SM VCTS SCT020 BKN050CB
      TEMPO 1706/1710 5SM -TSRA BKN030CB
     FM171600 12014KT P6SM SCT020 BKN035
     FM180100 11006KT P6SM SCT030 BKN050=

USA.gov is the U.S. government's official web portal to all federal, state and local government web resources and services.